PWSweather.com
Personal Weather Stations
Station Observations
SHAHALMS1
Eftra, Falkenberg, HA

EftraFalkenberg, HA

Lat: 56.85, Lon: 12.65

Elevation: 140

Station Type:

http://hem.passagen.se/risarp101

High Low Average
Temperature 80.2°F26.8°C 65.3°F18.5°C 72.3°F22.4°C
Dew Point 67.0°F19.4°C 56.6°F13.7°C 62.9°F17.2°C
Winds 9.9 mph 15.9 kmh Calm Calm 5.0 mph NE8.0 kmh NE
Wind Gusts 19.3 mph31.1 kmh -- 7.0 mph11.3 kmh
Humidity 90% 60% 73%
Pressure 30.12 in1020.0 mb 29.92 in1013.2 mb -
Precipitation 0.00 in0.0 mm - -
Hour Temp Dew Point Humidity Winds Wind Gusts Pressure Precip Precip Rate Daily Precip Total
12:00 AM 68.5°F20.3°C 56.7°F13.7°C 66% Calm Calm -- 30.12 in1020.0 mb 0.00 in0.0 mm 0.00 in0.0 mm 0.00 in0.0 mm
12:10 AM 68.2°F20.1°C 56.8°F13.8°C 67% Calm Calm -- 30.12 in1020.0 mb 0.00 in0.0 mm 0.00 in0.0 mm 0.00 in0.0 mm
12:20 AM 68.0°F20.0°C 56.6°F13.7°C 67% Calm Calm -- 30.12 in1020.0 mb 0.00 in0.0 mm 0.00 in0.0 mm 0.00 in0.0 mm
12:30 AM 67.8°F19.9°C 56.9°F13.8°C 68% Calm Calm -- 30.12 in1020.0 mb 0.00 in0.0 mm 0.00 in0.0 mm 0.00 in0.0 mm
12:40 AM 67.6°F19.8°C 56.7°F13.7°C 68% Calm Calm -- 30.09 in1019.0 mb 0.00 in0.0 mm 0.00 in0.0 mm 0.00 in0.0 mm
12:50 AM 67.5°F19.7°C 56.9°F13.8°C 69% Calm Calm -- 30.09 in1019.0 mb 0.00 in0.0 mm 0.00 in0.0 mm 0.00 in0.0 mm
01:00 AM 67.8°F19.9°C 57.7°F14.3°C 70% Calm Calm -- 30.12 in1020.0 mb 0.00 in0.0 mm 0.00 in0.0 mm 0.00 in0.0 mm
01:10 AM 68.0°F20.0°C 57.8°F14.3°C 70% Calm Calm -- 30.12 in1020.0 mb 0.00 in0.0 mm 0.00 in0.0 mm 0.00 in0.0 mm
01:20 AM 68.0°F20.0°C 57.8°F14.3°C 70% Calm Calm -- 30.12 in1020.0 mb 0.00 in0.0 mm 0.00 in0.0 mm 0.00 in0.0 mm
01:30 AM 68.2°F20.1°C 58.4°F14.7°C 71% Calm Calm -- 30.09 in1019.0 mb 0.00 in0.0 mm 0.00 in0.0 mm 0.00 in0.0 mm
01:40 AM 68.2°F20.1°C 58.4°F14.7°C 71% Calm Calm -- 30.09 in1019.0 mb 0.00 in0.0 mm 0.00 in0.0 mm 0.00 in0.0 mm
01:50 AM 68.2°F20.1°C 58.4°F14.7°C 71% Calm Calm -- 30.09 in1019.0 mb 0.00 in0.0 mm 0.00 in0.0 mm 0.00 in0.0 mm
02:00 AM 67.8°F19.9°C 58.8°F14.9°C 73% Calm Calm -- 30.09 in1019.0 mb 0.00 in0.0 mm 0.00 in0.0 mm 0.00 in0.0 mm
02:10 AM 67.3°F19.6°C 58.7°F14.8°C 74% Calm Calm -- 30.07 in1018.3 mb 0.00 in0.0 mm 0.00 in0.0 mm 0.00 in0.0 mm
02:20 AM 67.1°F19.5°C 58.9°F14.9°C 75% Calm Calm -- 30.07 in1018.3 mb 0.00 in0.0 mm 0.00 in0.0 mm 0.00 in0.0 mm
02:30 AM 67.1°F19.5°C 58.9°F14.9°C 75% Calm Calm -- 30.07 in1018.3 mb 0.00 in0.0 mm 0.00 in0.0 mm 0.00 in0.0 mm
02:40 AM 67.1°F19.5°C 58.9°F14.9°C 75% Calm Calm -- 30.07 in1018.3 mb 0.00 in0.0 mm 0.00 in0.0 mm 0.00 in0.0 mm
02:50 AM 67.1°F19.5°C 59.3°F15.2°C 76% Calm Calm -- 30.07 in1018.3 mb 0.00 in0.0 mm 0.00 in0.0 mm 0.00 in0.0 mm
03:00 AM 66.9°F19.4°C 58.7°F14.8°C 75% Calm Calm -- 30.07 in1018.3 mb 0.00 in0.0 mm 0.00 in0.0 mm 0.00 in0.0 mm
03:10 AM 66.9°F19.4°C 58.7°F14.8°C 75% Calm Calm -- 30.07 in1018.3 mb 0.00 in0.0 mm 0.00 in0.0 mm 0.00 in0.0 mm
03:20 AM 66.9°F19.4°C 59.1°F15.1°C 76% Calm Calm -- 30.07 in1018.3 mb 0.00 in0.0 mm 0.00 in0.0 mm 0.00 in0.0 mm
03:30 AM 66.9°F19.4°C 59.1°F15.1°C 76% Calm Calm -- 30.07 in1018.3 mb 0.00 in0.0 mm 0.00 in0.0 mm 0.00 in0.0 mm
03:40 AM 66.7°F19.3°C 58.9°F14.9°C 76% Calm Calm -- 30.07 in1018.3 mb 0.00 in0.0 mm 0.00 in0.0 mm 0.00 in0.0 mm
03:50 AM 66.7°F19.3°C 59.3°F15.2°C 77% Calm Calm -- 30.07 in1018.3 mb 0.00 in0.0 mm 0.00 in0.0 mm 0.00 in0.0 mm
04:00 AM 66.7°F19.3°C 59.3°F15.2°C 77% Calm Calm -- 30.07 in1018.3 mb 0.00 in0.0 mm 0.00 in0.0 mm 0.00 in0.0 mm
04:10 AM 66.9°F19.4°C 59.5°F15.3°C 77% Calm Calm -- 30.07 in1018.3 mb 0.00 in0.0 mm 0.00 in0.0 mm 0.00 in0.0 mm
04:20 AM 66.7°F19.3°C 59.3°F15.2°C 77% Calm Calm -- 30.07 in1018.3 mb 0.00 in0.0 mm 0.00 in0.0 mm 0.00 in0.0 mm
04:30 AM 66.6°F19.2°C 59.1°F15.1°C 77% Calm Calm -- 30.07 in1018.3 mb 0.00 in0.0 mm 0.00 in0.0 mm 0.00 in0.0 mm
04:40 AM 66.4°F19.1°C 58.9°F14.9°C 77% Calm Calm -- 30.07 in1018.3 mb 0.00 in0.0 mm 0.00 in0.0 mm 0.00 in0.0 mm
04:50 AM 66.2°F19.0°C 58.8°F14.9°C 77% Calm Calm -- 30.07 in1018.3 mb 0.00 in0.0 mm 0.00 in0.0 mm 0.00 in0.0 mm
05:00 AM 66.0°F18.9°C 59.0°F15.0°C 78% Calm Calm -- 30.07 in1018.3 mb 0.00 in0.0 mm 0.00 in0.0 mm 0.00 in0.0 mm
05:10 AM 65.8°F18.8°C 59.1°F15.1°C 79% Calm Calm -- 30.04 in1017.3 mb 0.00 in0.0 mm 0.00 in0.0 mm 0.00 in0.0 mm
05:20 AM 65.8°F18.8°C 59.1°F15.1°C 79% Calm Calm -- 30.04 in1017.3 mb 0.00 in0.0 mm 0.00 in0.0 mm 0.00 in0.0 mm
05:30 AM 65.7°F18.7°C 59.0°F15.0°C 79% Calm Calm -- 30.07 in1018.3 mb 0.00 in0.0 mm 0.00 in0.0 mm 0.00 in0.0 mm
05:40 AM 65.7°F18.7°C 59.3°F15.2°C 80% Calm Calm -- 30.04 in1017.3 mb 0.00 in0.0 mm 0.00 in0.0 mm 0.00 in0.0 mm
05:50 AM 65.5°F18.6°C 59.1°F15.1°C 80% Calm Calm -- 30.04 in1017.3 mb 0.00 in0.0 mm 0.00 in0.0 mm 0.00 in0.0 mm
06:00 AM 65.3°F18.5°C 59.0°F15.0°C 80% Calm Calm -- 30.07 in1018.3 mb 0.00 in0.0 mm 0.00 in0.0 mm 0.00 in0.0 mm
06:10 AM 65.5°F18.6°C 59.5°F15.3°C 81% Calm Calm -- 30.07 in1018.3 mb 0.00 in0.0 mm 0.00 in0.0 mm 0.00 in0.0 mm
06:20 AM 65.7°F18.7°C 59.7°F15.4°C 81% Calm Calm -- 30.07 in1018.3 mb 0.00 in0.0 mm 0.00 in0.0 mm 0.00 in0.0 mm
06:30 AM 66.0°F18.9°C 60.0°F15.6°C 81% Calm Calm -- 30.04 in1017.3 mb 0.00 in0.0 mm 0.00 in0.0 mm 0.00 in0.0 mm
06:40 AM 66.0°F18.9°C 60.0°F15.6°C 81% Calm Calm -- 30.04 in1017.3 mb 0.00 in0.0 mm 0.00 in0.0 mm 0.00 in0.0 mm
06:50 AM 66.0°F18.9°C 60.0°F15.6°C 81% Calm Calm -- 30.04 in1017.3 mb 0.00 in0.0 mm 0.00 in0.0 mm 0.00 in0.0 mm
07:00 AM 66.2°F19.0°C 60.2°F15.7°C 81% Calm Calm -- 30.04 in1017.3 mb 0.00 in0.0 mm 0.00 in0.0 mm 0.00 in0.0 mm
07:10 AM 66.2°F19.0°C 60.5°F15.8°C 82% Calm Calm -- 30.04 in1017.3 mb 0.00 in0.0 mm 0.00 in0.0 mm 0.00 in0.0 mm
07:20 AM 66.0°F18.9°C 60.4°F15.8°C 82% Calm Calm -- 30.04 in1017.3 mb 0.00 in0.0 mm 0.00 in0.0 mm 0.00 in0.0 mm
07:30 AM 66.0°F18.9°C 60.4°F15.8°C 82% Calm Calm -- 30.04 in1017.3 mb 0.00 in0.0 mm 0.00 in0.0 mm 0.00 in0.0 mm
07:40 AM 67.3°F19.6°C 61.9°F16.6°C 83% Calm Calm -- 30.01 in1016.3 mb 0.00 in0.0 mm 0.00 in0.0 mm 0.00 in0.0 mm
07:50 AM 68.0°F20.0°C 61.9°F16.6°C 81% Calm Calm -- 30.01 in1016.3 mb 0.00 in0.0 mm 0.00 in0.0 mm 0.00 in0.0 mm
08:00 AM 68.7°F20.4°C 62.7°F17.1°C 81% Calm Calm -- 30.01 in1016.3 mb 0.00 in0.0 mm 0.00 in0.0 mm 0.00 in0.0 mm
08:10 AM 68.9°F20.5°C 62.1°F16.7°C 79% Calm Calm -- 30.01 in1016.3 mb 0.00 in0.0 mm 0.00 in0.0 mm 0.00 in0.0 mm
08:20 AM 68.9°F20.5°C 62.1°F16.7°C 79% Calm Calm -- 30.01 in1016.3 mb 0.00 in0.0 mm 0.00 in0.0 mm 0.00 in0.0 mm
08:30 AM 69.4°F20.8°C 62.6°F17.0°C 79% Calm Calm -- 30.01 in1016.3 mb 0.00 in0.0 mm 0.00 in0.0 mm 0.00 in0.0 mm
08:40 AM 70.2°F21.2°C 63.0°F17.2°C 78% Calm Calm -- 29.98 in1015.2 mb 0.00 in0.0 mm 0.00 in0.0 mm 0.00 in0.0 mm
08:50 AM 70.0°F21.1°C 62.1°F16.7°C 76% Calm Calm -- 29.98 in1015.2 mb 0.00 in0.0 mm 0.00 in0.0 mm 0.00 in0.0 mm
09:00 AM 70.3°F21.3°C 62.8°F17.1°C 77% Calm Calm -- 30.01 in1016.3 mb 0.00 in0.0 mm 0.00 in0.0 mm 0.00 in0.0 mm
09:10 AM 71.1°F21.7°C 63.5°F17.5°C 77% Calm Calm -- 30.01 in1016.3 mb 0.00 in0.0 mm 0.00 in0.0 mm 0.00 in0.0 mm
09:20 AM 72.5°F22.5°C 64.9°F18.3°C 77% Calm Calm -- 30.01 in1016.3 mb 0.00 in0.0 mm 0.00 in0.0 mm 0.00 in0.0 mm
09:30 AM 74.3°F23.5°C 65.9°F18.8°C 75% 5.7 mph E9.2 kmh E 10.0 mph16.1 kmh 30.01 in1016.3 mb 0.00 in0.0 mm 0.00 in0.0 mm 0.00 in0.0 mm
09:40 AM 75.0°F23.9°C 65.0°F18.3°C 71% 8.1 mph E13.0 kmh E 10.0 mph16.1 kmh 30.01 in1016.3 mb 0.00 in0.0 mm 0.00 in0.0 mm 0.00 in0.0 mm
09:50 AM 75.6°F24.2°C 64.7°F18.2°C 69% 8.1 mph E13.0 kmh E 10.0 mph16.1 kmh 30.01 in1016.3 mb 0.00 in0.0 mm 0.00 in0.0 mm 0.00 in0.0 mm
10:00 AM 75.6°F24.2°C 63.8°F17.7°C 67% 8.1 mph E13.0 kmh E 10.0 mph16.1 kmh 30.01 in1016.3 mb 0.00 in0.0 mm 0.00 in0.0 mm 0.00 in0.0 mm
10:10 AM 76.6°F24.8°C 64.4°F18.0°C 66% 9.6 mph E15.4 kmh E 19.3 mph31.1 kmh 30.01 in1016.3 mb 0.00 in0.0 mm 0.00 in0.0 mm 0.00 in0.0 mm
10:20 AM 77.0°F25.0°C 63.9°F17.7°C 64% 9.3 mph ESE15.0 kmh ESE 15.0 mph24.1 kmh 30.01 in1016.3 mb 0.00 in0.0 mm 0.00 in0.0 mm 0.00 in0.0 mm
10:30 AM 77.0°F25.0°C 63.9°F17.7°C 64% 8.4 mph SE13.5 kmh SE 10.4 mph16.7 kmh 30.01 in1016.3 mb 0.00 in0.0 mm 0.00 in0.0 mm 0.00 in0.0 mm
10:40 AM 77.0°F25.0°C 63.9°F17.7°C 64% 8.4 mph SE13.5 kmh SE 10.4 mph16.7 kmh 30.01 in1016.3 mb 0.00 in0.0 mm 0.00 in0.0 mm 0.00 in0.0 mm
10:50 AM 77.5°F25.3°C 63.9°F17.7°C 63% 8.7 mph E14.0 kmh E 19.0 mph30.6 kmh 30.01 in1016.3 mb 0.00 in0.0 mm 0.00 in0.0 mm 0.00 in0.0 mm
11:00 AM 77.7°F25.4°C 64.6°F18.1°C 64% 7.8 mph E12.6 kmh E 13.6 mph21.9 kmh 30.01 in1016.3 mb 0.00 in0.0 mm 0.00 in0.0 mm 0.00 in0.0 mm
11:10 AM 78.6°F25.9°C 65.4°F18.6°C 64% 6.1 mph ESE9.8 kmh ESE 13.6 mph21.9 kmh 30.01 in1016.3 mb 0.00 in0.0 mm 0.00 in0.0 mm 0.00 in0.0 mm
11:20 AM 79.0°F26.1°C 64.8°F18.2°C 62% 7.1 mph ESE11.4 kmh ESE 14.0 mph22.5 kmh 30.01 in1016.3 mb 0.00 in0.0 mm 0.00 in0.0 mm 0.00 in0.0 mm
11:30 AM 79.0°F26.1°C 64.4°F18.0°C 61% 6.9 mph ESE11.1 kmh ESE 16.5 mph26.6 kmh 29.98 in1015.2 mb 0.00 in0.0 mm 0.00 in0.0 mm 0.00 in0.0 mm
11:40 AM 79.0°F26.1°C 64.4°F18.0°C 61% 1.7 mph E2.7 kmh E 2.1 mph3.4 kmh 30.01 in1016.3 mb 0.00 in0.0 mm 0.00 in0.0 mm 0.00 in0.0 mm
11:50 AM 78.3°F25.7°C 63.7°F17.6°C 61% 1.7 mph E2.7 kmh E 2.1 mph3.4 kmh 30.01 in1016.3 mb 0.00 in0.0 mm 0.00 in0.0 mm 0.00 in0.0 mm
12:00 PM 77.7°F25.4°C 63.7°F17.6°C 62% 1.7 mph E2.7 kmh E 2.1 mph3.4 kmh 29.98 in1015.2 mb 0.00 in0.0 mm 0.00 in0.0 mm 0.00 in0.0 mm
12:10 PM 78.1°F25.6°C 64.5°F18.1°C 63% 1.7 mph E2.7 kmh E 2.1 mph3.4 kmh 30.01 in1016.3 mb 0.00 in0.0 mm 0.00 in0.0 mm 0.00 in0.0 mm
12:20 PM 78.3°F25.7°C 64.6°F18.1°C 63% 1.7 mph E2.7 kmh E 2.1 mph3.4 kmh 30.01 in1016.3 mb 0.00 in0.0 mm 0.00 in0.0 mm 0.00 in0.0 mm
12:30 PM 78.1°F25.6°C 64.5°F18.1°C 63% 1.7 mph E2.7 kmh E 2.1 mph3.4 kmh 30.01 in1016.3 mb 0.00 in0.0 mm 0.00 in0.0 mm 0.00 in0.0 mm
12:40 PM 78.1°F25.6°C 64.9°F18.3°C 64% 1.7 mph E2.7 kmh E 2.1 mph3.4 kmh 30.01 in1016.3 mb 0.00 in0.0 mm 0.00 in0.0 mm 0.00 in0.0 mm
12:50 PM 77.7°F25.4°C 64.6°F18.1°C 64% 1.7 mph E2.7 kmh E 2.1 mph3.4 kmh 30.01 in1016.3 mb 0.00 in0.0 mm 0.00 in0.0 mm 0.00 in0.0 mm
01:00 PM 78.1°F25.6°C 65.8°F18.8°C 66% 1.7 mph E2.7 kmh E 2.1 mph3.4 kmh 30.01 in1016.3 mb 0.00 in0.0 mm 0.00 in0.0 mm 0.00 in0.0 mm
01:10 PM 78.1°F25.6°C 65.8°F18.8°C 66% 1.7 mph E2.7 kmh E 2.1 mph3.4 kmh 30.01 in1016.3 mb 0.00 in0.0 mm 0.00 in0.0 mm 0.00 in0.0 mm
01:20 PM 78.3°F25.7°C 66.0°F18.9°C 66% 1.7 mph E2.7 kmh E 2.1 mph3.4 kmh 30.01 in1016.3 mb 0.00 in0.0 mm 0.00 in0.0 mm 0.00 in0.0 mm
01:30 PM 78.3°F25.7°C 65.5°F18.6°C 65% 1.7 mph E2.7 kmh E 2.1 mph3.4 kmh 30.01 in1016.3 mb 0.00 in0.0 mm 0.00 in0.0 mm 0.00 in0.0 mm
01:40 PM 78.1°F25.6°C 65.4°F18.6°C 65% 1.7 mph E2.7 kmh E 2.1 mph3.4 kmh 30.01 in1016.3 mb 0.00 in0.0 mm 0.00 in0.0 mm 0.00 in0.0 mm
01:50 PM 78.3°F25.7°C 66.0°F18.9°C 66% 7.9 mph E12.7 kmh E 14.0 mph22.5 kmh 30.01 in1016.3 mb 0.00 in0.0 mm 0.00 in0.0 mm 0.00 in0.0 mm
02:00 PM 79.3°F26.3°C 67.0°F19.4°C 66% 8.2 mph E13.2 kmh E 14.7 mph23.7 kmh 30.01 in1016.3 mb 0.00 in0.0 mm 0.00 in0.0 mm 0.00 in0.0 mm
02:10 PM 80.1°F26.7°C 66.8°F19.3°C 64% 7.4 mph E11.9 kmh E 15.7 mph25.3 kmh 30.01 in1016.3 mb 0.00 in0.0 mm 0.00 in0.0 mm 0.00 in0.0 mm
02:20 PM 80.2°F26.8°C 66.5°F19.2°C 63% 7.4 mph E11.9 kmh E 15.7 mph25.3 kmh 30.01 in1016.3 mb 0.00 in0.0 mm 0.00 in0.0 mm 0.00 in0.0 mm
02:30 PM 80.1°F26.7°C 65.9°F18.8°C 62% 6.0 mph E9.7 kmh E 12.2 mph19.6 kmh 30.01 in1016.3 mb 0.00 in0.0 mm 0.00 in0.0 mm 0.00 in0.0 mm
02:40 PM 79.9°F26.6°C 65.2°F18.4°C 61% 7.3 mph SE11.7 kmh SE 10.4 mph16.7 kmh 30.01 in1016.3 mb 0.00 in0.0 mm 0.00 in0.0 mm 0.00 in0.0 mm
02:50 PM 79.5°F26.4°C 64.4°F18.0°C 60% 7.7 mph SE12.4 kmh SE 10.4 mph16.7 kmh 30.01 in1016.3 mb 0.00 in0.0 mm 0.00 in0.0 mm 0.00 in0.0 mm
03:00 PM 79.3°F26.3°C 64.2°F17.9°C 60% 7.3 mph ESE11.7 kmh ESE 8.9 mph14.3 kmh 30.01 in1016.3 mb 0.00 in0.0 mm 0.00 in0.0 mm 0.00 in0.0 mm
03:10 PM 79.0°F26.1°C 64.4°F18.0°C 61% 7.3 mph ESE11.7 kmh ESE 8.9 mph14.3 kmh 30.01 in1016.3 mb 0.00 in0.0 mm 0.00 in0.0 mm 0.00 in0.0 mm
03:20 PM 79.2°F26.2°C 64.1°F17.8°C 60% 7.9 mph E12.7 kmh E 9.7 mph15.6 kmh 30.01 in1016.3 mb 0.00 in0.0 mm 0.00 in0.0 mm 0.00 in0.0 mm
03:30 PM 79.3°F26.3°C 64.7°F18.2°C 61% 6.6 mph E10.6 kmh E 12.2 mph19.6 kmh 29.98 in1015.2 mb 0.00 in0.0 mm 0.00 in0.0 mm 0.00 in0.0 mm
03:40 PM 79.5°F26.4°C 64.9°F18.3°C 61% 8.0 mph ESE12.9 kmh ESE 12.5 mph20.1 kmh 29.98 in1015.2 mb 0.00 in0.0 mm 0.00 in0.0 mm 0.00 in0.0 mm
03:50 PM 79.5°F26.4°C 64.9°F18.3°C 61% 9.9 mph E15.9 kmh E 12.2 mph19.6 kmh 29.98 in1015.2 mb 0.00 in0.0 mm 0.00 in0.0 mm 0.00 in0.0 mm
04:00 PM 79.2°F26.2°C 65.0°F18.3°C 62% 9.9 mph E15.9 kmh E 12.2 mph19.6 kmh 29.98 in1015.2 mb 0.00 in0.0 mm 0.00 in0.0 mm 0.00 in0.0 mm
04:10 PM 79.2°F26.2°C 65.5°F18.6°C 63% 9.9 mph E15.9 kmh E 12.2 mph19.6 kmh 29.98 in1015.2 mb 0.00 in0.0 mm 0.00 in0.0 mm 0.00 in0.0 mm
04:20 PM 79.0°F26.1°C 65.8°F18.8°C 64% 9.9 mph E15.9 kmh E 12.2 mph19.6 kmh 29.98 in1015.2 mb 0.00 in0.0 mm 0.00 in0.0 mm 0.00 in0.0 mm
04:30 PM 78.8°F26.0°C 65.6°F18.7°C 64% 9.9 mph E15.9 kmh E 12.2 mph19.6 kmh 29.98 in1015.2 mb 0.00 in0.0 mm 0.00 in0.0 mm 0.00 in0.0 mm
04:40 PM 78.8°F26.0°C 66.0°F18.9°C 65% 9.9 mph E15.9 kmh E 12.2 mph19.6 kmh 29.98 in1015.2 mb 0.00 in0.0 mm 0.00 in0.0 mm 0.00 in0.0 mm
04:50 PM 78.6°F25.9°C 65.9°F18.8°C 65% 9.9 mph E15.9 kmh E 12.2 mph19.6 kmh 29.98 in1015.2 mb 0.00 in0.0 mm 0.00 in0.0 mm 0.00 in0.0 mm
05:00 PM 78.6°F25.9°C 66.3°F19.1°C 66% 9.9 mph E15.9 kmh E 12.2 mph19.6 kmh 29.95 in1014.2 mb 0.00 in0.0 mm 0.00 in0.0 mm 0.00 in0.0 mm
05:10 PM 78.6°F25.9°C 66.3°F19.1°C 66% 9.9 mph E15.9 kmh E 12.2 mph19.6 kmh 29.95 in1014.2 mb 0.00 in0.0 mm 0.00 in0.0 mm 0.00 in0.0 mm
05:20 PM 78.4°F25.8°C 66.6°F19.2°C 67% 9.9 mph E15.9 kmh E 12.2 mph19.6 kmh 29.95 in1014.2 mb 0.00 in0.0 mm 0.00 in0.0 mm 0.00 in0.0 mm
05:30 PM 78.1°F25.6°C 66.2°F19.0°C 67% 9.9 mph E15.9 kmh E 12.2 mph19.6 kmh 29.95 in1014.2 mb 0.00 in0.0 mm 0.00 in0.0 mm 0.00 in0.0 mm
05:40 PM 77.9°F25.5°C 66.5°F19.2°C 68% 9.9 mph E15.9 kmh E 12.2 mph19.6 kmh 29.95 in1014.2 mb 0.00 in0.0 mm 0.00 in0.0 mm 0.00 in0.0 mm
05:50 PM 77.5°F25.3°C 66.1°F18.9°C 68% 9.9 mph E15.9 kmh E 12.2 mph19.6 kmh 29.95 in1014.2 mb 0.00 in0.0 mm 0.00 in0.0 mm 0.00 in0.0 mm
06:00 PM 77.2°F25.1°C 66.2°F19.0°C 69% 9.9 mph E15.9 kmh E 12.2 mph19.6 kmh 29.95 in1014.2 mb 0.00 in0.0 mm 0.00 in0.0 mm 0.00 in0.0 mm
06:10 PM 76.8°F24.9°C 66.3°F19.1°C 70% 9.9 mph E15.9 kmh E 12.2 mph19.6 kmh 29.95 in1014.2 mb 0.00 in0.0 mm 0.00 in0.0 mm 0.00 in0.0 mm
06:20 PM 76.3°F24.6°C 66.2°F19.0°C 71% 9.9 mph E15.9 kmh E 12.2 mph19.6 kmh 29.95 in1014.2 mb 0.00 in0.0 mm 0.00 in0.0 mm 0.00 in0.0 mm
06:30 PM 75.9°F24.4°C 65.8°F18.8°C 71% 9.9 mph E15.9 kmh E 12.2 mph19.6 kmh 29.95 in1014.2 mb 0.00 in0.0 mm 0.00 in0.0 mm 0.00 in0.0 mm
06:40 PM 75.6°F24.2°C 65.9°F18.8°C 72% 9.9 mph E15.9 kmh E 12.2 mph19.6 kmh 29.95 in1014.2 mb 0.00 in0.0 mm 0.00 in0.0 mm 0.00 in0.0 mm
06:50 PM 75.0°F23.9°C 65.8°F18.8°C 73% 9.9 mph E15.9 kmh E 12.2 mph19.6 kmh 29.95 in1014.2 mb 0.00 in0.0 mm 0.00 in0.0 mm 0.00 in0.0 mm
07:00 PM 74.7°F23.7°C 65.8°F18.8°C 74% 9.9 mph E15.9 kmh E 12.2 mph19.6 kmh 29.95 in1014.2 mb 0.00 in0.0 mm 0.00 in0.0 mm 0.00 in0.0 mm
07:10 PM 74.1°F23.4°C 65.3°F18.5°C 74% 9.9 mph E15.9 kmh E 12.2 mph19.6 kmh 29.95 in1014.2 mb 0.00 in0.0 mm 0.00 in0.0 mm 0.00 in0.0 mm
07:20 PM 73.6°F23.1°C 65.2°F18.4°C 75% 9.9 mph E15.9 kmh E 12.2 mph19.6 kmh 29.95 in1014.2 mb 0.00 in0.0 mm 0.00 in0.0 mm 0.00 in0.0 mm
07:30 PM 73.2°F22.9°C 65.2°F18.4°C 76% 9.9 mph E15.9 kmh E 12.2 mph19.6 kmh 29.95 in1014.2 mb 0.00 in0.0 mm 0.00 in0.0 mm 0.00 in0.0 mm
07:40 PM 72.9°F22.7°C 65.2°F18.4°C 77% 9.9 mph E15.9 kmh E 12.2 mph19.6 kmh 29.95 in1014.2 mb 0.00 in0.0 mm 0.00 in0.0 mm 0.00 in0.0 mm
07:50 PM 72.5°F22.5°C 65.2°F18.4°C 78% 9.9 mph E15.9 kmh E 12.2 mph19.6 kmh 29.95 in1014.2 mb 0.00 in0.0 mm 0.00 in0.0 mm 0.00 in0.0 mm
08:00 PM 72.1°F22.3°C 64.9°F18.3°C 78% 9.9 mph E15.9 kmh E 12.2 mph19.6 kmh 29.95 in1014.2 mb 0.00 in0.0 mm 0.00 in0.0 mm 0.00 in0.0 mm
08:10 PM 72.0°F22.2°C 65.1°F18.4°C 79% 9.9 mph E15.9 kmh E 12.2 mph19.6 kmh 29.95 in1014.2 mb 0.00 in0.0 mm 0.00 in0.0 mm 0.00 in0.0 mm
08:20 PM 72.0°F22.2°C 65.8°F18.8°C 81% 9.9 mph E15.9 kmh E 12.2 mph19.6 kmh 29.95 in1014.2 mb 0.00 in0.0 mm 0.00 in0.0 mm 0.00 in0.0 mm
08:30 PM 71.8°F22.1°C 65.6°F18.7°C 81% 9.9 mph E15.9 kmh E 12.2 mph19.6 kmh 29.95 in1014.2 mb 0.00 in0.0 mm 0.00 in0.0 mm 0.00 in0.0 mm
08:40 PM 71.4°F21.9°C 64.9°F18.3°C 80% 9.9 mph E15.9 kmh E 12.2 mph19.6 kmh 29.95 in1014.2 mb 0.00 in0.0 mm 0.00 in0.0 mm 0.00 in0.0 mm
08:50 PM 71.4°F21.9°C 65.6°F18.7°C 82% 9.9 mph E15.9 kmh E 12.2 mph19.6 kmh 29.95 in1014.2 mb 0.00 in0.0 mm 0.00 in0.0 mm 0.00 in0.0 mm
09:00 PM 71.2°F21.8°C 65.5°F18.6°C 82% 9.9 mph E15.9 kmh E 12.2 mph19.6 kmh 29.98 in1015.2 mb 0.00 in0.0 mm 0.00 in0.0 mm 0.00 in0.0 mm
09:10 PM 71.1°F21.7°C 65.6°F18.7°C 83% 9.9 mph E15.9 kmh E 12.2 mph19.6 kmh 29.95 in1014.2 mb 0.00 in0.0 mm 0.00 in0.0 mm 0.00 in0.0 mm
09:20 PM 70.9°F21.6°C 65.5°F18.6°C 83% 9.9 mph E15.9 kmh E 12.2 mph19.6 kmh 29.95 in1014.2 mb 0.00 in0.0 mm 0.00 in0.0 mm 0.00 in0.0 mm
09:30 PM 70.9°F21.6°C 65.8°F18.8°C 84% 9.9 mph E15.9 kmh E 12.2 mph19.6 kmh 29.98 in1015.2 mb 0.00 in0.0 mm 0.00 in0.0 mm 0.00 in0.0 mm
09:40 PM 70.7°F21.5°C 65.6°F18.7°C 84% 9.9 mph E15.9 kmh E 12.2 mph19.6 kmh 29.98 in1015.2 mb 0.00 in0.0 mm 0.00 in0.0 mm 0.00 in0.0 mm
09:50 PM 70.3°F21.3°C 64.9°F18.3°C 83% 9.9 mph E15.9 kmh E 12.2 mph19.6 kmh 29.98 in1015.2 mb 0.00 in0.0 mm 0.00 in0.0 mm 0.00 in0.0 mm
10:00 PM 70.0°F21.1°C 64.9°F18.3°C 84% 9.9 mph E15.9 kmh E 12.2 mph19.6 kmh 29.95 in1014.2 mb 0.00 in0.0 mm 0.00 in0.0 mm 0.00 in0.0 mm
10:10 PM 69.8°F21.0°C 64.7°F18.2°C 84% 9.9 mph E15.9 kmh E 12.2 mph19.6 kmh 29.95 in1014.2 mb 0.00 in0.0 mm 0.00 in0.0 mm 0.00 in0.0 mm
10:20 PM 69.4°F20.8°C 64.7°F18.2°C 85% 9.9 mph E15.9 kmh E 12.2 mph19.6 kmh 29.95 in1014.2 mb 0.00 in0.0 mm 0.00 in0.0 mm 0.00 in0.0 mm
10:30 PM 69.1°F20.6°C 64.4°F18.0°C 85% 9.9 mph E15.9 kmh E 12.2 mph19.6 kmh 29.95 in1014.2 mb 0.00 in0.0 mm 0.00 in0.0 mm 0.00 in0.0 mm
10:40 PM 68.7°F20.4°C 64.0°F17.8°C 85% 9.9 mph E15.9 kmh E 12.2 mph19.6 kmh 29.95 in1014.2 mb 0.00 in0.0 mm 0.00 in0.0 mm 0.00 in0.0 mm
10:50 PM 68.4°F20.2°C 63.7°F17.6°C 85% 9.9 mph E15.9 kmh E 12.2 mph19.6 kmh 29.95 in1014.2 mb 0.00 in0.0 mm 0.00 in0.0 mm 0.00 in0.0 mm
11:00 PM 68.0°F20.0°C 63.7°F17.6°C 86% 9.9 mph E15.9 kmh E 12.2 mph19.6 kmh 29.92 in1013.2 mb 0.00 in0.0 mm 0.00 in0.0 mm 0.00 in0.0 mm
11:10 PM 68.0°F20.0°C 64.0°F17.8°C 87% 9.9 mph E15.9 kmh E 12.2 mph19.6 kmh 29.95 in1014.2 mb 0.00 in0.0 mm 0.00 in0.0 mm 0.00 in0.0 mm
11:20 PM 68.0°F20.0°C 64.3°F17.9°C 88% 9.9 mph E15.9 kmh E 12.2 mph19.6 kmh 29.95 in1014.2 mb 0.00 in0.0 mm 0.00 in0.0 mm 0.00 in0.0 mm
11:30 PM 68.0°F20.0°C 64.6°F18.1°C 89% 9.9 mph E15.9 kmh E 12.2 mph19.6 kmh 29.95 in1014.2 mb 0.00 in0.0 mm 0.00 in0.0 mm 0.00 in0.0 mm
11:40 PM 68.0°F20.0°C 64.6°F18.1°C 89% 9.9 mph E15.9 kmh E 12.2 mph19.6 kmh 29.95 in1014.2 mb 0.00 in0.0 mm 0.00 in0.0 mm 0.00 in0.0 mm
11:50 PM 68.2°F20.1°C 65.1°F18.4°C 90% 9.9 mph E15.9 kmh E 12.2 mph19.6 kmh 29.95 in1014.2 mb 0.00 in0.0 mm 0.00 in0.0 mm 0.00 in0.0 mm